Αρχική σελίδα
METAR-TAF:

METAR-TAF

Αεροδρόμια :

Hoonah, Αλάσκα, Ηνωμένες Πολιτείες Αμερικής

γεωγραφικό πλάτος: 58-07N, γεωγραφικό μήκος: 135-27W, υψόμετρο: 0 μ

Παρών καιρός

Η αναφορά έγινε 56 λεπτά πριν, στις 19:56 UTC
Άνεμος 7 kt από Α/NA
Θερμοκρασία 16°C
Υγρασία 48%
Πίεση 1007 hPa
Ορατότητα: 16.1 χλμ
Διάσπαρτα νέφη σε ύψος 10000 πόδια
Αρκετά νέφη σε ύψος 12000 πόδια

METAR: PAOH 191956Z AUTO 11007KT 10SM SCT100 BKN120 16/05 A2974 RMK AO2 SLP069 T01560050

Χρόνος: 12:52 (20:52 UTC)


TAF: λείπει

Μετεωρολογικές αναφορές και προγνώσεις για περισσότερα από 4000 αεροδρόμια (δελτία METAR και TAF).

Οι διαθέσιμοι σταθμοί απεικονίζονται στο χάρτη με κίτρινες και κόκκινες κουκκίδες.

Μετακινήστε το ποντίκι πάνω από τις κουκκίδες για να δείτε το όνομα του σταθμού.

Στη συνέχεια, κάντε κλικ για να δείτε τις μετεωρολογικές αναφορές και τις προγνώσεις καιρού.

Για να αλλάξετε το χάρτη: κάντε κλικ στα πράσινα κουμπιά με τον μαύρο σταυρό για να ζουμάρετε, στο πράσινο κουμπί με την παύλα για να αφαιρέσετε το ζουμ ή στα πράσινα βέλη για να αντιπαραβάλλετε χάρτες.


METAR-TAF: